Terminal Aerodrome Forecast
Issued by NWS Binghamton, NY

Home | Current Version | Previous Version | Text Only | Print | Product List | Glossary On
Versions: 1 2 3 4 5 6 7 8 9 10 11 12 13 14 15 16
890
FTUS41 KBGM 232332
TAFSYR
TAF
KSYR 232332Z 2400/2424 21010KT P6SM SCT045 BKN100
     FM240100 22008KT P6SM BKN025 OVC100
      TEMPO 2402/2404 5SM -SHRA BR BKN015
     FM240600 28010KT P6SM SCT008 OVC012
      TEMPO 2408/2411 -SHRA
     FM241300 28012KT P6SM SCT040
     FM241800 28012G20KT P6SM SCT150=

USA.gov is the U.S. government's official web portal to all federal, state and local government web resources and services.